createdAt,value
2022-09-09T00:00:57.808Z,1.10
2022-09-09T00:03:34.022Z,0.90
2022-09-09T00:06:17.642Z,0.80
2022-09-09T00:09:02.180Z,0.73
2022-09-09T00:11:42.251Z,0.90
2022-09-09T00:14:24.638Z,1.03
2022-09-09T00:17:03.047Z,0.90
2022-09-09T00:19:45.412Z,1.03
2022-09-09T00:22:21.523Z,1.03
2022-09-09T00:24:55.537Z,0.80
2022-09-09T00:27:33.661Z,1.00
2022-09-09T00:30:17.213Z,1.10
2022-09-09T00:32:46.814Z,1.33
2022-09-09T00:35:24.751Z,0.93
2022-09-09T00:38:03.437Z,1.07
2022-09-09T00:40:38.165Z,0.80
2022-09-09T00:43:27.530Z,1.20
2022-09-09T00:47:00.595Z,0.97
2022-09-09T00:49:47.535Z,0.93
2022-09-09T00:52:34.257Z,1.00
2022-09-09T00:55:14.805Z,1.00
2022-09-09T00:57:43.867Z,1.03
2022-09-09T01:00:25.524Z,1.07
2022-09-09T01:03:23.063Z,1.10
2022-09-09T01:06:04.821Z,1.23
2022-09-09T01:09:04.644Z,1.47
2022-09-09T01:11:51.209Z,0.90
2022-09-09T01:14:38.565Z,1.20
2022-09-09T01:17:18.232Z,1.20
2022-09-09T01:20:07.898Z,1.40
2022-09-09T01:23:28.025Z,1.17
2022-09-09T01:26:23.969Z,0.90
2022-09-09T01:28:54.657Z,1.30
2022-09-09T01:31:37.375Z,1.37
2022-09-09T01:34:14.258Z,1.47
2022-09-09T01:36:52.372Z,1.20
2022-09-09T01:39:22.273Z,1.37
2022-09-09T01:42:01.159Z,1.40
2022-09-09T01:44:32.338Z,1.00
2022-09-09T01:47:00.912Z,1.40
2022-09-09T01:49:30.249Z,1.47
2022-09-09T01:52:00.087Z,1.20
2022-09-09T01:54:36.004Z,1.50
2022-09-09T01:57:25.495Z,1.60
2022-09-09T02:00:07.670Z,1.53
2022-09-09T02:02:57.469Z,1.30
2022-09-09T02:05:39.307Z,1.20
2022-09-09T02:08:25.710Z,1.50
2022-09-09T02:11:07.945Z,1.60
2022-09-09T02:13:50.371Z,1.80
2022-09-09T02:16:27.398Z,1.30
2022-09-09T02:19:03.595Z,1.37
2022-09-09T02:21:48.987Z,1.20
2022-09-09T02:24:18.877Z,2.50
2022-09-09T02:27:00.111Z,1.47
2022-09-09T02:29:37.355Z,1.30
2022-09-09T02:32:11.210Z,1.50
2022-09-09T02:34:50.874Z,1.37
2022-09-09T02:37:25.969Z,1.40
2022-09-09T02:39:56.731Z,1.50
2022-09-09T02:42:27.042Z,1.50
2022-09-09T02:44:59.264Z,1.50
2022-09-09T02:47:37.288Z,1.50
2022-09-09T02:50:19.880Z,1.50
2022-09-09T02:53:12.098Z,1.20
2022-09-09T02:55:55.784Z,1.40
2022-09-09T02:58:26.682Z,1.60
2022-09-09T03:01:05.570Z,1.70
2022-09-09T03:03:35.027Z,1.70
2022-09-09T03:06:09.129Z,1.43
2022-09-09T03:08:38.435Z,1.63
2022-09-09T03:11:07.334Z,1.77
2022-09-09T03:13:39.829Z,1.63
2022-09-09T03:16:10.282Z,1.50
2022-09-09T03:18:46.601Z,1.50
2022-09-09T03:21:16.089Z,1.80
2022-09-09T03:23:45.869Z,1.33
2022-09-09T03:26:15.636Z,1.70
2022-09-09T03:28:47.458Z,1.50
2022-09-09T03:31:25.171Z,1.80
2022-09-09T03:33:55.036Z,1.90
2022-09-09T03:36:23.786Z,1.40
2022-09-09T03:38:52.122Z,1.53
2022-09-09T03:41:20.906Z,1.90
2022-09-09T03:43:49.502Z,1.37
2022-09-09T03:46:20.043Z,1.53
2022-09-09T03:48:50.318Z,1.60
2022-09-09T03:51:19.101Z,1.47
2022-09-09T03:53:49.395Z,1.43
2022-09-09T03:56:17.794Z,1.70
2022-09-09T03:58:46.069Z,1.30
2022-09-09T04:01:18.679Z,1.30
2022-09-09T04:03:47.309Z,1.47
2022-09-09T04:06:18.107Z,1.47
2022-09-09T04:08:50.364Z,1.73
2022-09-09T04:11:19.466Z,1.60
2022-09-09T04:14:09.887Z,2.10
2022-09-09T04:16:39.402Z,1.60
2022-09-09T04:19:08.618Z,1.47
2022-09-09T04:21:38.423Z,1.50
2022-09-09T04:24:08.283Z,1.50
2022-09-09T04:26:38.013Z,1.67
2022-09-09T04:29:08.590Z,1.63
2022-09-09T04:31:38.660Z,1.50
2022-09-09T04:34:07.357Z,1.60
2022-09-09T04:36:35.985Z,1.70
2022-09-09T04:39:09.702Z,1.60
2022-09-09T04:41:38.716Z,2.00
2022-09-09T04:44:07.586Z,2.37
2022-09-09T04:46:36.306Z,1.63
2022-09-09T04:49:05.073Z,1.70
2022-09-09T04:51:34.717Z,2.20
2022-09-09T04:54:03.592Z,1.70
2022-09-09T04:56:34.144Z,1.70
2022-09-09T04:59:04.018Z,1.70
2022-09-09T05:01:46.748Z,1.67
2022-09-09T05:04:16.218Z,2.00
2022-09-09T05:06:45.269Z,1.63
2022-09-09T05:09:14.870Z,1.70
2022-09-09T05:11:44.982Z,2.07
2022-09-09T05:14:21.263Z,1.40
2022-09-09T05:16:50.901Z,1.63
2022-09-09T05:19:20.802Z,1.70
2022-09-09T05:21:51.851Z,1.60
2022-09-09T05:24:25.032Z,1.60
2022-09-09T05:26:59.043Z,1.50
2022-09-09T05:29:27.608Z,1.90
2022-09-09T05:31:57.342Z,1.60
2022-09-09T05:34:26.461Z,1.37
2022-09-09T05:36:54.962Z,1.60
2022-09-09T05:39:25.155Z,1.67
2022-09-09T05:41:53.623Z,2.10
2022-09-09T05:44:24.366Z,1.50
2022-09-09T05:46:52.760Z,1.70
2022-09-09T05:49:21.356Z,1.73
2022-09-09T05:51:51.478Z,1.63
2022-09-09T05:54:21.377Z,1.43
2022-09-09T05:56:53.710Z,1.70
2022-09-09T05:59:24.229Z,1.23
2022-09-09T06:01:55.258Z,1.67
2022-09-09T06:04:29.013Z,1.67
2022-09-09T06:06:57.435Z,1.50
2022-09-09T06:09:26.346Z,1.47
2022-09-09T06:11:55.645Z,1.50
2022-09-09T06:14:28.273Z,1.40
2022-09-09T06:16:59.591Z,1.73
2022-09-09T06:19:31.831Z,1.27
2022-09-09T06:22:01.229Z,1.20
2022-09-09T06:24:32.509Z,1.40
2022-09-09T06:27:01.935Z,1.20
2022-09-09T06:29:35.860Z,1.20
2022-09-09T06:32:05.716Z,1.20
2022-09-09T06:34:34.502Z,1.50
2022-09-09T06:37:02.868Z,1.40
2022-09-09T06:39:37.719Z,1.20
2022-09-09T06:42:06.581Z,1.10
2022-09-09T06:44:54.814Z,1.47
2022-09-09T06:47:40.693Z,1.30
2022-09-09T06:50:11.873Z,1.47
2022-09-09T06:52:41.920Z,1.20
2022-09-09T06:55:11.617Z,1.27
2022-09-09T06:57:40.206Z,1.50
2022-09-09T07:00:16.457Z,1.43
2022-09-09T07:02:46.151Z,1.00
2022-09-09T07:05:16.324Z,1.60
2022-09-09T07:07:46.363Z,1.13
2022-09-09T07:10:16.789Z,1.17
2022-09-09T07:12:46.163Z,1.30
2022-09-09T07:15:16.650Z,1.03
2022-09-09T07:17:47.474Z,1.30
2022-09-09T07:20:16.958Z,1.10
2022-09-09T07:22:45.657Z,1.00
2022-09-09T07:25:15.202Z,1.23
2022-09-09T07:27:43.998Z,1.73
2022-09-09T07:30:19.275Z,1.20
2022-09-09T07:32:53.801Z,1.03
2022-09-09T07:35:22.515Z,1.20
2022-09-09T07:37:51.322Z,1.20
2022-09-09T07:40:22.774Z,1.30
2022-09-09T07:42:51.352Z,1.20
2022-09-09T07:45:20.045Z,1.20
2022-09-09T07:47:49.787Z,1.00
2022-09-09T07:50:20.974Z,1.30
2022-09-09T07:52:50.015Z,1.10
2022-09-09T07:55:19.255Z,1.10
2022-09-09T07:57:47.927Z,1.53
2022-09-09T08:00:17.651Z,1.30
2022-09-09T08:02:54.910Z,1.20
2022-09-09T08:05:25.976Z,1.20
2022-09-09T08:07:54.939Z,1.23
2022-09-09T08:10:23.563Z,1.53
2022-09-09T08:13:14.955Z,1.53
2022-09-09T08:15:42.453Z,1.23
2022-09-09T08:18:10.935Z,1.10
2022-09-09T08:20:41.454Z,1.80
2022-09-09T08:23:10.226Z,1.10
2022-09-09T08:25:39.010Z,1.00
2022-09-09T08:28:07.835Z,1.10
2022-09-09T08:30:36.476Z,1.00
2022-09-09T08:33:05.831Z,1.00
2022-09-09T08:35:34.750Z,1.03
2022-09-09T08:38:08.912Z,1.10
2022-09-09T08:40:50.097Z,1.10
2022-09-09T08:43:23.442Z,1.13
2022-09-09T08:46:04.994Z,0.90
2022-09-09T08:48:56.005Z,0.63
2022-09-09T08:51:28.609Z,1.23
2022-09-09T08:54:01.652Z,1.10
2022-09-09T08:56:34.855Z,1.00
2022-09-09T08:59:06.128Z,1.03
2022-09-09T09:01:55.770Z,1.20
2022-09-09T09:04:56.837Z,1.07
2022-09-09T09:07:43.005Z,1.07
2022-09-09T09:10:40.965Z,1.17
2022-09-09T09:13:18.930Z,1.10
2022-09-09T09:15:56.257Z,1.03
2022-09-09T09:18:24.619Z,0.90
2022-09-09T09:21:07.964Z,1.10
2022-09-09T09:23:47.921Z,1.10
2022-09-09T09:26:17.658Z,1.20
2022-09-09T09:28:48.028Z,1.00
2022-09-09T09:31:22.876Z,1.30
2022-09-09T09:33:54.864Z,1.10
2022-09-09T09:36:40.891Z,1.30
2022-09-09T09:42:14.959Z,1.17
2022-09-09T09:44:45.932Z,1.23
2022-09-09T09:47:24.296Z,1.00
2022-09-09T09:50:21.349Z,1.07
2022-09-09T09:52:58.336Z,0.90
2022-09-09T09:55:28.502Z,1.23
2022-09-09T10:00:51.045Z,1.40
2022-09-09T10:03:28.803Z,1.00
2022-09-09T10:05:58.987Z,1.00
2022-09-09T10:08:29.709Z,1.30
2022-09-09T10:11:25.635Z,1.13
2022-09-09T10:14:07.820Z,1.37
2022-09-09T10:16:56.929Z,0.93
2022-09-09T10:19:33.451Z,1.07
2022-09-09T10:22:27.227Z,1.30
2022-09-09T10:25:29.214Z,1.30
2022-09-09T10:28:25.094Z,1.00
2022-09-09T10:31:17.414Z,1.10
2022-09-09T10:33:57.737Z,1.07
2022-09-09T10:36:29.326Z,1.20
2022-09-09T10:39:06.043Z,1.30
2022-09-09T10:41:51.489Z,1.30
2022-09-09T10:44:37.278Z,1.40
2022-09-09T10:47:45.595Z,1.30
2022-09-09T10:51:00.461Z,1.07
2022-09-09T10:53:38.806Z,1.00
2022-09-09T10:56:12.746Z,1.00
2022-09-09T10:58:50.986Z,1.00
2022-09-09T11:01:26.174Z,1.40
2022-09-09T11:04:05.164Z,1.30
2022-09-09T11:06:41.971Z,1.00
2022-09-09T11:09:18.984Z,1.17
2022-09-09T11:11:55.468Z,1.10
2022-09-09T11:14:36.844Z,1.00
2022-09-09T11:17:14.249Z,1.00
2022-09-09T11:19:46.245Z,1.07
2022-09-09T11:22:30.323Z,1.13
2022-09-09T11:25:07.945Z,0.80
2022-09-09T11:28:02.571Z,1.00
2022-09-09T11:30:56.876Z,1.10
2022-09-09T11:34:00.108Z,0.97
2022-09-09T11:37:05.787Z,1.30
2022-09-09T11:40:15.983Z,1.10
2022-09-09T11:42:45.496Z,1.53
2022-09-09T11:45:26.637Z,0.93
2022-09-09T11:47:58.252Z,0.90
2022-09-09T11:50:37.378Z,0.97
2022-09-09T11:53:23.553Z,0.73
2022-09-09T11:56:13.037Z,1.03
2022-09-09T11:58:47.901Z,1.00
2022-09-09T12:01:29.717Z,1.00
2022-09-09T12:04:21.431Z,0.87
2022-09-09T12:06:56.840Z,1.20
2022-09-09T12:09:35.607Z,0.93
2022-09-09T12:12:22.375Z,0.90
2022-09-09T12:15:29.778Z,1.13
2022-09-09T12:18:03.796Z,1.07
2022-09-09T12:20:37.116Z,0.63
2022-09-09T12:23:21.302Z,0.70
2022-09-09T12:26:09.743Z,1.07
2022-09-09T12:28:59.831Z,0.90
2022-09-09T12:31:36.354Z,0.70
2022-09-09T12:34:16.398Z,1.17
2022-09-09T12:36:54.009Z,0.80
2022-09-09T12:39:34.917Z,0.80
2022-09-09T12:42:05.299Z,0.80
2022-09-09T12:44:34.233Z,0.90
2022-09-09T12:47:06.029Z,0.80
2022-09-09T12:49:40.183Z,0.70
2022-09-09T12:52:19.374Z,0.93
2022-09-09T12:54:52.132Z,0.80
2022-09-09T12:57:26.396Z,0.97
2022-09-09T13:00:10.891Z,0.80
2022-09-09T13:02:51.203Z,0.83
2022-09-09T13:05:24.673Z,0.70
2022-09-09T13:07:53.795Z,0.80
2022-09-09T13:10:36.968Z,0.97
2022-09-09T13:13:25.077Z,1.40
2022-09-09T13:15:58.473Z,0.67
2022-09-09T13:18:31.519Z,0.80
2022-09-09T13:21:00.372Z,0.50
2022-09-09T13:23:33.291Z,0.77
2022-09-09T13:26:07.061Z,0.87
2022-09-09T13:28:36.962Z,0.80
2022-09-09T13:31:21.741Z,0.70
2022-09-09T13:33:50.216Z,0.67
2022-09-09T13:36:31.008Z,1.00
2022-09-09T13:39:02.401Z,1.13
2022-09-09T13:41:35.671Z,0.60
2022-09-09T13:44:07.369Z,0.60
2022-09-09T13:46:38.215Z,0.70
2022-09-09T13:49:24.294Z,0.90
2022-09-09T13:51:54.904Z,0.80
2022-09-09T13:54:23.775Z,0.60
2022-09-09T13:56:52.227Z,0.77
2022-09-09T13:59:22.512Z,0.70
2022-09-09T14:01:53.305Z,0.80
2022-09-09T14:04:22.585Z,0.77
2022-09-09T14:06:52.543Z,0.77
2022-09-09T14:09:21.426Z,0.87
2022-09-09T14:11:49.950Z,0.93
2022-09-09T14:14:18.673Z,0.60
2022-09-09T14:16:49.254Z,0.77
2022-09-09T14:19:17.554Z,0.73
2022-09-09T14:21:45.862Z,1.00
2022-09-09T14:24:15.041Z,0.70
2022-09-09T14:26:43.375Z,0.70
2022-09-09T14:29:11.643Z,0.80
2022-09-09T14:31:40.223Z,1.10
2022-09-09T14:34:11.404Z,0.90
2022-09-09T14:36:40.152Z,0.80
2022-09-09T14:39:08.589Z,0.90
2022-09-09T14:41:36.831Z,0.80
2022-09-09T14:44:05.177Z,0.80
2022-09-09T14:46:34.478Z,0.63
2022-09-09T14:49:02.813Z,0.87
2022-09-09T14:51:32.995Z,1.10
2022-09-09T14:54:03.001Z,0.80
2022-09-09T14:56:35.594Z,0.90
2022-09-09T14:59:04.858Z,0.60
2022-09-09T15:01:35.346Z,0.60
2022-09-09T15:04:06.726Z,0.90
2022-09-09T15:06:40.050Z,1.00
2022-09-09T15:09:09.187Z,0.93
2022-09-09T15:11:39.573Z,0.70
2022-09-09T15:14:09.996Z,0.83
2022-09-09T15:16:41.157Z,0.60
2022-09-09T15:19:10.818Z,0.77
2022-09-09T15:21:40.786Z,1.00
2022-09-09T15:24:09.371Z,0.77
2022-09-09T15:26:40.543Z,0.63
2022-09-09T15:29:10.142Z,0.93
2022-09-09T15:31:39.781Z,0.70
2022-09-09T15:34:09.543Z,1.07
2022-09-09T15:36:41.356Z,1.30
2022-09-09T15:39:13.876Z,1.20
2022-09-09T15:41:43.122Z,0.97
2022-09-09T15:44:13.087Z,1.03
2022-09-09T15:46:44.392Z,1.23
2022-09-09T15:49:15.199Z,0.73
2022-09-09T15:51:47.090Z,0.90
2022-09-09T15:54:18.877Z,1.13
2022-09-09T15:56:49.647Z,1.00
2022-09-09T15:59:19.214Z,1.17
2022-09-09T16:01:47.680Z,1.40
2022-09-09T16:04:21.192Z,1.37
2022-09-09T16:06:53.329Z,1.30
2022-09-09T16:09:22.195Z,0.90
2022-09-09T16:11:50.865Z,1.10
2022-09-09T16:14:19.872Z,1.00
2022-09-09T16:16:48.102Z,0.60
2022-09-09T16:19:16.527Z,1.07
2022-09-09T16:21:48.398Z,0.90
2022-09-09T16:24:21.715Z,0.90
2022-09-09T16:26:55.171Z,0.87
2022-09-09T16:29:24.884Z,0.90
2022-09-09T16:31:53.262Z,1.13
2022-09-09T16:34:23.082Z,0.97
2022-09-09T16:36:51.686Z,1.23
2022-09-09T16:39:27.356Z,1.10
2022-09-09T16:41:55.664Z,1.30
2022-09-09T16:44:23.919Z,0.87
2022-09-09T16:46:59.654Z,0.70
2022-09-09T16:49:29.575Z,0.90
2022-09-09T16:52:00.997Z,0.83
2022-09-09T16:54:31.281Z,1.60
2022-09-09T16:57:01.730Z,1.00
2022-09-09T16:59:32.557Z,1.30
2022-09-09T17:02:01.405Z,1.00
2022-09-09T17:04:31.828Z,0.90
2022-09-09T17:07:01.529Z,1.00
2022-09-09T17:09:32.462Z,0.67
2022-09-09T17:12:01.802Z,0.90
2022-09-09T17:14:32.024Z,0.80
2022-09-09T17:17:13.992Z,0.90
2022-09-09T17:19:51.098Z,1.10
2022-09-09T17:22:20.777Z,1.63
2022-09-09T17:24:51.194Z,1.90
2022-09-09T17:27:20.334Z,2.50
2022-09-09T17:29:49.110Z,2.60
2022-09-09T17:32:17.742Z,2.20
2022-09-09T17:34:46.889Z,2.10
2022-09-09T17:37:15.419Z,1.90
2022-09-09T17:39:45.517Z,2.30
2022-09-09T17:42:16.292Z,2.53
2022-09-09T17:44:44.534Z,2.23
2022-09-09T17:47:12.771Z,2.00
2022-09-09T17:49:41.230Z,1.80
2022-09-09T17:52:09.494Z,2.07
2022-09-09T17:54:37.739Z,2.00
2022-09-09T17:57:07.504Z,2.10
2022-09-09T17:59:37.687Z,2.07
2022-09-09T18:02:06.547Z,2.20
2022-09-09T18:04:37.029Z,1.77
2022-09-09T18:07:06.985Z,1.77
2022-09-09T18:09:35.747Z,1.70
2022-09-09T18:12:04.067Z,2.23
2022-09-09T18:14:33.934Z,2.20
2022-09-09T18:17:05.463Z,2.10
2022-09-09T18:19:34.490Z,2.43
2022-09-09T18:22:05.213Z,2.50
2022-09-09T18:24:36.349Z,2.80
2022-09-09T18:27:05.190Z,2.67
2022-09-09T18:29:34.290Z,2.67
2022-09-09T18:32:04.295Z,2.87
2022-09-09T18:34:32.747Z,2.40
2022-09-09T18:37:01.532Z,2.90
2022-09-09T18:39:31.299Z,3.07
2022-09-09T18:42:02.515Z,2.80
2022-09-09T18:44:35.701Z,2.20
2022-09-09T18:47:05.450Z,2.60
2022-09-09T18:49:34.166Z,2.50
2022-09-09T18:52:04.291Z,2.53
2022-09-09T18:54:34.487Z,2.53
2022-09-09T18:57:03.818Z,2.10
2022-09-09T18:59:32.535Z,1.70
2022-09-09T19:02:01.151Z,1.50
2022-09-09T19:04:32.991Z,1.27
2022-09-09T19:07:01.262Z,1.40
2022-09-09T19:09:33.955Z,1.47
2022-09-09T19:12:02.894Z,1.40
2022-09-09T19:14:31.703Z,1.80
2022-09-09T19:17:00.380Z,1.50
2022-09-09T19:19:33.300Z,1.23
2022-09-09T19:22:03.403Z,1.07
2022-09-09T19:24:34.506Z,1.33
2022-09-09T19:27:06.666Z,1.40
2022-09-09T19:29:39.806Z,0.97
2022-09-09T19:35:01.931Z,0.90
2022-09-09T19:37:32.152Z,1.00
2022-09-09T19:40:00.641Z,0.90
2022-09-09T19:42:30.096Z,0.90
2022-09-09T19:44:59.062Z,1.00
2022-09-09T19:47:27.857Z,1.67
2022-09-09T19:49:56.089Z,1.00
2022-09-09T19:52:26.581Z,1.30
2022-09-09T19:54:55.447Z,1.10
2022-09-09T19:57:23.888Z,0.73
2022-09-09T19:59:54.615Z,1.00
2022-09-09T20:02:24.931Z,1.00
2022-09-09T20:04:55.171Z,1.00
2022-09-09T20:07:23.921Z,1.00
2022-09-09T20:09:54.741Z,1.10
2022-09-09T20:12:23.519Z,2.23
2022-09-09T20:14:51.763Z,1.13
2022-09-09T20:17:20.108Z,0.93
2022-09-09T20:19:48.888Z,1.00
2022-09-09T20:22:17.682Z,0.80
2022-09-09T20:24:45.931Z,0.80
2022-09-09T20:27:16.093Z,1.00
2022-09-09T20:29:45.767Z,1.50
2022-09-09T20:32:14.554Z,1.30
2022-09-09T20:34:47.865Z,1.30
2022-09-09T20:37:17.523Z,1.30
2022-09-09T20:39:47.178Z,1.20
2022-09-09T20:42:17.844Z,1.40
2022-09-09T20:44:46.791Z,0.97
2022-09-09T20:47:15.014Z,1.20
2022-09-09T20:49:44.208Z,1.00
2022-09-09T20:52:13.191Z,1.10
2022-09-09T20:54:42.122Z,0.87
2022-09-09T20:57:10.895Z,0.87
2022-09-09T20:59:41.817Z,0.60
2022-09-09T21:02:11.373Z,1.10
2022-09-09T21:04:39.960Z,1.00
2022-09-09T21:07:08.733Z,0.80
2022-09-09T21:09:37.131Z,0.93
2022-09-09T21:12:05.705Z,1.00
2022-09-09T21:14:34.472Z,0.90
2022-09-09T21:17:04.149Z,0.87
2022-09-09T21:19:32.378Z,0.80
2022-09-09T21:22:01.153Z,0.90
2022-09-09T21:24:29.619Z,1.03
2022-09-09T21:26:57.938Z,0.80
2022-09-09T21:29:26.273Z,0.77
2022-09-09T21:31:55.742Z,0.90
2022-09-09T21:34:25.414Z,0.90
2022-09-09T21:36:54.191Z,0.80
2022-09-09T21:39:22.742Z,0.93
2022-09-09T21:41:50.958Z,0.80
2022-09-09T21:44:20.980Z,0.87
2022-09-09T21:46:49.525Z,1.03
2022-09-09T21:49:17.764Z,0.90
2022-09-09T21:51:47.883Z,0.90
2022-09-09T21:54:16.215Z,0.80
2022-09-09T21:56:44.632Z,0.90
2022-09-09T21:59:12.877Z,1.00
2022-09-09T22:01:42.169Z,0.60
2022-09-09T22:04:11.037Z,0.87
2022-09-09T22:06:39.649Z,1.40
2022-09-09T22:09:09.492Z,1.10
2022-09-09T22:11:38.264Z,0.70
2022-09-09T22:14:06.501Z,1.00
2022-09-09T22:16:34.831Z,1.00
2022-09-09T22:19:03.656Z,0.80
2022-09-09T22:21:33.898Z,1.03
2022-09-09T22:24:05.155Z,1.03
2022-09-09T22:26:38.814Z,0.80
2022-09-09T22:29:09.015Z,1.00
2022-09-09T22:31:38.430Z,0.93
2022-09-09T22:34:07.831Z,1.00
2022-09-09T22:36:36.673Z,0.80
2022-09-09T22:39:06.142Z,0.90
2022-09-09T22:41:35.722Z,1.37
2022-09-09T22:44:04.446Z,1.13
2022-09-09T22:46:33.536Z,0.90
2022-09-09T22:49:03.639Z,1.30
2022-09-09T22:51:34.650Z,0.80
2022-09-09T22:54:03.480Z,1.17
2022-09-09T22:56:31.969Z,0.90
2022-09-09T22:59:02.509Z,0.83
2022-09-09T23:01:31.837Z,0.90
2022-09-09T23:04:02.678Z,1.20
2022-09-09T23:06:32.806Z,0.97
2022-09-09T23:09:04.121Z,0.97
2022-09-09T23:11:36.888Z,0.90
2022-09-09T23:14:11.312Z,1.03
2022-09-09T23:16:43.947Z,0.70
2022-09-09T23:19:15.700Z,1.20
2022-09-09T23:21:47.891Z,0.97
2022-09-09T23:24:23.310Z,0.80
2022-09-09T23:26:52.938Z,1.10
2022-09-09T23:29:22.512Z,0.90
2022-09-09T23:31:50.765Z,0.73
2022-09-09T23:34:19.503Z,1.10
2022-09-09T23:36:47.864Z,0.90
2022-09-09T23:39:16.113Z,1.20
2022-09-09T23:41:46.679Z,1.27
2022-09-09T23:44:14.927Z,1.07
2022-09-09T23:46:44.839Z,0.97
2022-09-09T23:49:13.155Z,1.00
2022-09-09T23:51:41.545Z,0.90
2022-09-09T23:54:10.715Z,0.90
2022-09-09T23:56:42.356Z,0.80
2022-09-09T23:59:11.726Z,1.20
